createdAt,value
2022-11-07T00:00:51.786Z,6.85
2022-11-07T00:01:53.853Z,6.72
2022-11-07T00:02:56.111Z,6.35
2022-11-07T00:04:32.122Z,6.20
2022-11-07T00:05:37.421Z,6.28
2022-11-07T00:06:40.293Z,6.55
2022-11-07T00:07:45.561Z,6.00
2022-11-07T00:08:48.214Z,5.70
2022-11-07T00:09:53.155Z,5.88
2022-11-07T00:10:54.746Z,6.43
2022-11-07T00:11:56.635Z,7.57
2022-11-07T00:12:58.850Z,6.13
2022-11-07T00:14:02.080Z,6.07
2022-11-07T00:15:06.212Z,6.70
2022-11-07T00:16:12.536Z,6.00
2022-11-07T00:17:14.809Z,6.93
2022-11-07T00:18:17.606Z,7.70
2022-11-07T00:19:21.920Z,7.80
2022-11-07T00:20:25.314Z,7.57
2022-11-07T00:21:29.066Z,6.35
2022-11-07T00:22:33.166Z,6.72
2022-11-07T00:23:35.522Z,7.07
2022-11-07T00:24:37.733Z,7.72
2022-11-07T00:25:40.531Z,7.70
2022-11-07T00:26:46.477Z,7.05
2022-11-07T00:27:51.646Z,7.37
2022-11-07T00:28:53.881Z,6.80
2022-11-07T00:29:56.469Z,7.55
2022-11-07T00:30:59.307Z,6.60
2022-11-07T00:32:04.254Z,7.78
2022-11-07T00:33:05.810Z,7.40
2022-11-07T00:34:08.603Z,5.95
2022-11-07T00:35:10.887Z,8.55
2022-11-07T00:36:22.515Z,6.25
2022-11-07T00:37:24.810Z,6.50
2022-11-07T00:38:26.563Z,7.78
2022-11-07T00:39:29.190Z,7.72
2022-11-07T00:40:32.805Z,6.40
2022-11-07T00:41:38.607Z,5.78
2022-11-07T00:42:40.027Z,5.80
2022-11-07T00:43:42.307Z,7.15
2022-11-07T00:44:49.074Z,6.22
2022-11-07T00:45:53.390Z,6.00
2022-11-07T00:46:56.141Z,6.03
2022-11-07T00:47:57.529Z,6.80
2022-11-07T00:49:01.726Z,6.75
2022-11-07T00:50:06.299Z,6.65
2022-11-07T00:51:12.204Z,5.15
2022-11-07T00:52:16.515Z,5.97
2022-11-07T00:53:19.180Z,6.75
2022-11-07T00:54:20.925Z,6.60
2022-11-07T00:55:23.797Z,6.55
2022-11-07T00:56:25.930Z,5.00
2022-11-07T00:57:28.501Z,6.97
2022-11-07T00:58:35.178Z,6.15
2022-11-07T00:59:38.381Z,5.60
2022-11-07T01:00:41.391Z,6.70
2022-11-07T01:01:46.658Z,6.25
2022-11-07T01:03:10.047Z,5.70
2022-11-07T01:04:33.448Z,6.70
2022-11-07T01:05:36.348Z,5.57
2022-11-07T01:06:39.969Z,6.32
2022-11-07T01:07:42.145Z,6.70
2022-11-07T01:08:45.923Z,5.63
2022-11-07T01:09:48.645Z,5.93
2022-11-07T01:10:52.906Z,6.53
2022-11-07T01:11:54.421Z,5.15
2022-11-07T01:12:56.836Z,7.25
2022-11-07T01:14:02.636Z,5.68
2022-11-07T01:15:05.157Z,6.38
2022-11-07T01:16:10.413Z,5.95
2022-11-07T01:17:11.830Z,6.07
2022-11-07T01:18:16.779Z,5.50
2022-11-07T01:19:19.578Z,6.32
2022-11-07T01:20:20.980Z,5.72
2022-11-07T01:21:25.002Z,6.00
2022-11-07T01:22:27.705Z,5.50
2022-11-07T01:23:29.778Z,5.78
2022-11-07T01:24:32.584Z,6.13
2022-11-07T01:25:39.626Z,5.32
2022-11-07T01:26:44.030Z,5.78
2022-11-07T01:27:46.790Z,5.50
2022-11-07T01:28:49.976Z,5.10
2022-11-07T01:29:51.872Z,6.05
2022-11-07T01:30:54.847Z,5.57
2022-11-07T01:31:58.221Z,4.93
2022-11-07T01:33:01.174Z,5.30
2022-11-07T01:34:03.502Z,5.25
2022-11-07T01:35:09.628Z,5.10
2022-11-07T01:36:17.234Z,5.20
2022-11-07T01:37:18.869Z,6.03
2022-11-07T01:38:20.413Z,5.53
2022-11-07T01:39:21.960Z,5.53
2022-11-07T01:40:23.978Z,5.47
2022-11-07T01:41:32.048Z,5.35
2022-11-07T01:42:33.967Z,5.90
2022-11-07T01:43:47.088Z,5.00
2022-11-07T01:45:05.880Z,5.07
2022-11-07T01:46:08.998Z,5.25
2022-11-07T01:47:11.957Z,4.90
2022-11-07T01:48:16.415Z,4.45
2022-11-07T01:49:36.099Z,5.07
2022-11-07T01:50:42.259Z,5.88
2022-11-07T01:51:52.752Z,4.75
2022-11-07T01:52:56.853Z,4.63
2022-11-07T01:53:59.035Z,4.47
2022-11-07T01:55:09.704Z,5.38
2022-11-07T01:56:15.787Z,5.22
2022-11-07T01:58:01.659Z,4.78
2022-11-07T01:59:07.117Z,7.75
2022-11-07T02:00:11.853Z,5.30
2022-11-07T02:01:14.882Z,5.50
2022-11-07T02:02:16.917Z,5.18
2022-11-07T02:03:21.237Z,6.65
2022-11-07T02:04:28.242Z,5.05
2022-11-07T02:06:04.391Z,5.47
2022-11-07T02:07:15.774Z,5.57
2022-11-07T02:08:18.531Z,5.10
2022-11-07T02:09:20.959Z,5.43
2022-11-07T02:10:23.867Z,4.85
2022-11-07T02:11:26.778Z,4.82
2022-11-07T02:12:30.076Z,5.85
2022-11-07T02:13:32.504Z,5.55
2022-11-07T02:14:35.385Z,5.05
2022-11-07T02:15:40.251Z,4.70
2022-11-07T02:16:43.102Z,5.53
2022-11-07T02:17:44.546Z,6.35
2022-11-07T02:18:47.098Z,4.65
2022-11-07T02:19:52.061Z,5.65
2022-11-07T02:20:59.416Z,5.07
2022-11-07T02:22:12.417Z,5.30
2022-11-07T02:23:27.375Z,5.57
2022-11-07T02:24:37.178Z,5.82
2022-11-07T02:25:40.099Z,6.18
2022-11-07T02:26:42.353Z,5.55
2022-11-07T02:27:45.893Z,5.05
2022-11-07T02:28:49.169Z,5.40
2022-11-07T02:30:09.393Z,5.18
2022-11-07T02:31:10.843Z,5.38
2022-11-07T02:32:13.408Z,5.13
2022-11-07T02:33:22.613Z,4.70
2022-11-07T02:34:28.076Z,7.10
2022-11-07T02:35:49.221Z,6.03
2022-11-07T02:36:52.150Z,5.38
2022-11-07T02:37:54.977Z,6.90
2022-11-07T02:38:59.920Z,5.97
2022-11-07T02:40:07.983Z,4.43
2022-11-07T02:41:18.854Z,5.50
2022-11-07T02:42:20.678Z,5.38
2022-11-07T02:43:26.958Z,5.57
2022-11-07T02:44:34.643Z,6.13
2022-11-07T02:45:40.893Z,6.88
2022-11-07T02:46:42.921Z,6.05
2022-11-07T02:47:44.870Z,4.93
2022-11-07T02:48:49.990Z,5.40
2022-11-07T02:49:55.775Z,5.05
2022-11-07T02:50:57.942Z,5.47
2022-11-07T02:52:00.523Z,5.53
2022-11-07T02:53:03.158Z,4.78
2022-11-07T02:54:07.293Z,5.20
2022-11-07T02:55:09.625Z,5.63
2022-11-07T02:56:12.851Z,4.70
2022-11-07T02:57:14.880Z,4.38
2022-11-07T02:58:17.786Z,4.33
2022-11-07T02:59:25.740Z,5.05
2022-11-07T03:00:29.812Z,4.00
2022-11-07T03:01:34.105Z,5.32
2022-11-07T03:02:37.056Z,4.50
2022-11-07T03:03:48.024Z,4.82
2022-11-07T03:04:51.238Z,4.55
2022-11-07T03:05:52.822Z,5.20
2022-11-07T03:06:55.366Z,5.00
2022-11-07T03:07:56.828Z,4.35
2022-11-07T03:09:00.574Z,5.70
2022-11-07T03:10:03.071Z,3.80
2022-11-07T03:11:08.184Z,5.38
2022-11-07T03:12:10.303Z,5.20
2022-11-07T03:13:13.566Z,4.95
2022-11-07T03:14:17.294Z,4.47
2022-11-07T03:15:21.559Z,4.47
2022-11-07T03:16:23.951Z,4.32
2022-11-07T03:17:26.739Z,5.20
2022-11-07T03:18:28.848Z,4.90
2022-11-07T03:19:31.810Z,4.22
2022-11-07T03:20:36.126Z,5.00
2022-11-07T03:21:37.842Z,3.85
2022-11-07T03:22:40.366Z,4.57
2022-11-07T03:23:45.205Z,5.40
2022-11-07T03:24:47.046Z,5.10
2022-11-07T03:25:49.419Z,5.43
2022-11-07T03:26:53.077Z,3.83
2022-11-07T03:27:57.098Z,4.57
2022-11-07T03:28:59.336Z,5.00
2022-11-07T03:30:04.772Z,5.10
2022-11-07T03:31:06.984Z,5.65
2022-11-07T03:32:09.133Z,4.38
2022-11-07T03:33:10.925Z,4.63
2022-11-07T03:34:16.242Z,5.00
2022-11-07T03:35:22.056Z,4.70
2022-11-07T03:36:26.822Z,4.30
2022-11-07T03:37:29.056Z,4.32
2022-11-07T03:38:32.106Z,4.35
2022-11-07T03:39:36.198Z,3.88
2022-11-07T03:40:39.718Z,4.55
2022-11-07T03:41:41.944Z,5.13
2022-11-07T03:42:45.741Z,6.35
2022-11-07T03:43:51.116Z,5.80
2022-11-07T03:44:53.013Z,4.00
2022-11-07T03:45:57.103Z,4.45
2022-11-07T03:46:58.626Z,5.05
2022-11-07T03:48:00.915Z,5.57
2022-11-07T03:49:03.542Z,4.97
2022-11-07T03:50:07.609Z,5.32
2022-11-07T03:51:10.885Z,5.65
2022-11-07T03:52:12.999Z,4.13
2022-11-07T03:53:20.641Z,5.60
2022-11-07T03:54:27.216Z,6.00
2022-11-07T03:55:28.722Z,4.82
2022-11-07T03:56:33.175Z,4.82
2022-11-07T03:57:36.056Z,4.55
2022-11-07T03:58:38.922Z,4.70
2022-11-07T03:59:43.439Z,4.18
2022-11-07T04:00:44.958Z,4.68
2022-11-07T04:01:52.897Z,5.18
2022-11-07T04:02:54.610Z,4.47
2022-11-07T04:03:56.557Z,4.65
2022-11-07T04:04:58.091Z,4.40
2022-11-07T04:05:59.470Z,5.20
2022-11-07T04:07:02.096Z,4.75
2022-11-07T04:08:04.446Z,3.88
2022-11-07T04:09:09.262Z,4.50
2022-11-07T04:10:11.770Z,5.38
2022-11-07T04:11:33.682Z,3.92
2022-11-07T04:12:57.116Z,4.65
2022-11-07T04:14:20.932Z,4.00
2022-11-07T04:15:41.767Z,4.78
2022-11-07T04:17:02.993Z,4.28
2022-11-07T04:18:07.027Z,3.93
2022-11-07T04:19:08.396Z,4.35
2022-11-07T04:20:11.707Z,4.07
2022-11-07T04:21:16.219Z,3.65
2022-11-07T04:22:19.101Z,4.70
2022-11-07T04:23:20.946Z,5.30
2022-11-07T04:24:23.721Z,5.22
2022-11-07T04:25:45.957Z,4.30
2022-11-07T04:27:07.043Z,4.70
2022-11-07T04:28:09.638Z,5.15
2022-11-07T04:29:12.254Z,4.90
2022-11-07T04:30:22.502Z,4.93
2022-11-07T04:31:27.407Z,4.22
2022-11-07T04:32:30.262Z,4.18
2022-11-07T04:33:31.781Z,3.80
2022-11-07T04:34:37.219Z,4.50
2022-11-07T04:35:38.954Z,3.75
2022-11-07T04:36:42.362Z,4.95
2022-11-07T04:37:44.364Z,4.93
2022-11-07T04:38:50.469Z,3.30
2022-11-07T04:39:52.034Z,3.85
2022-11-07T04:40:55.777Z,3.35
2022-11-07T04:42:00.322Z,3.97
2022-11-07T04:43:09.362Z,3.25
2022-11-07T04:44:10.951Z,3.97
2022-11-07T04:45:16.847Z,3.97
2022-11-07T04:46:19.941Z,5.38
2022-11-07T04:47:22.806Z,4.45
2022-11-07T04:48:25.031Z,2.83
2022-11-07T04:49:28.261Z,3.22
2022-11-07T04:50:30.285Z,4.20
2022-11-07T04:51:31.807Z,3.67
2022-11-07T04:52:36.418Z,3.55
2022-11-07T04:53:39.053Z,3.40
2022-11-07T04:54:40.892Z,4.80
2022-11-07T04:55:46.501Z,3.42
2022-11-07T04:56:51.193Z,5.25
2022-11-07T04:57:54.203Z,5.32
2022-11-07T04:58:56.134Z,4.80
2022-11-07T04:59:59.299Z,4.65
2022-11-07T05:01:00.982Z,4.65
2022-11-07T05:02:04.063Z,3.58
2022-11-07T05:03:08.301Z,3.72
2022-11-07T05:04:11.367Z,4.00
2022-11-07T05:05:13.324Z,4.00
2022-11-07T05:06:25.473Z,3.80
2022-11-07T05:07:26.937Z,4.73
2022-11-07T05:08:29.598Z,4.32
2022-11-07T05:09:32.267Z,5.35
2022-11-07T05:10:35.001Z,4.72
2022-11-07T05:11:36.907Z,5.55
2022-11-07T05:12:39.513Z,3.58
2022-11-07T05:13:42.015Z,4.53
2022-11-07T05:14:44.678Z,4.20
2022-11-07T05:15:48.330Z,4.38
2022-11-07T05:16:51.228Z,4.85
2022-11-07T05:17:53.061Z,4.85
2022-11-07T05:18:58.145Z,4.07
2022-11-07T05:20:00.010Z,5.50
2022-11-07T05:21:02.032Z,5.10
2022-11-07T05:22:22.637Z,6.18
2022-11-07T05:23:30.627Z,5.05
2022-11-07T05:24:35.952Z,5.80
2022-11-07T05:25:39.685Z,6.00
2022-11-07T05:26:41.497Z,5.25
2022-11-07T05:27:43.073Z,5.05
2022-11-07T05:28:45.123Z,6.57
2022-11-07T05:29:47.486Z,4.50
2022-11-07T05:30:49.514Z,4.32
2022-11-07T05:31:53.510Z,4.95
2022-11-07T05:32:57.301Z,6.00
2022-11-07T05:33:59.812Z,5.22
2022-11-07T05:35:01.888Z,5.50
2022-11-07T05:36:20.030Z,5.03
2022-11-07T05:37:25.732Z,5.63
2022-11-07T05:38:28.391Z,5.53
2022-11-07T05:39:31.823Z,6.13
2022-11-07T05:40:39.073Z,4.32
2022-11-07T05:41:41.135Z,5.00
2022-11-07T05:42:42.969Z,5.35
2022-11-07T05:43:45.162Z,4.70
2022-11-07T05:44:47.969Z,6.07
2022-11-07T05:45:52.423Z,4.35
2022-11-07T05:46:58.030Z,4.25
2022-11-07T05:48:07.984Z,5.47
2022-11-07T05:49:10.719Z,4.45
2022-11-07T05:50:14.285Z,3.65
2022-11-07T05:51:18.213Z,4.32
2022-11-07T05:52:19.926Z,4.25
2022-11-07T05:53:22.187Z,5.45
2022-11-07T05:54:24.769Z,3.92
2022-11-07T05:55:27.601Z,4.63
2022-11-07T05:56:30.672Z,4.78
2022-11-07T05:57:33.159Z,4.50
2022-11-07T05:58:35.387Z,4.78
2022-11-07T05:59:36.924Z,4.38
2022-11-07T06:00:39.060Z,3.75
2022-11-07T06:01:41.021Z,4.00
2022-11-07T06:02:43.528Z,5.10
2022-11-07T06:03:46.244Z,6.13
2022-11-07T06:04:47.976Z,6.75
2022-11-07T06:05:50.546Z,4.95
2022-11-07T06:06:53.055Z,3.63
2022-11-07T06:07:58.313Z,3.25
2022-11-07T06:09:00.000Z,8.95
2022-11-07T06:10:04.133Z,4.53
2022-11-07T06:11:06.518Z,5.00
2022-11-07T06:12:09.006Z,4.60
2022-11-07T06:13:18.441Z,4.00
2022-11-07T06:14:20.986Z,4.38
2022-11-07T06:15:23.097Z,5.72
2022-11-07T06:16:30.090Z,7.00
2022-11-07T06:17:31.568Z,4.72
2022-11-07T06:18:41.528Z,4.70
2022-11-07T06:19:44.214Z,4.30
2022-11-07T06:20:47.039Z,4.90
2022-11-07T06:21:49.858Z,5.07
2022-11-07T06:22:51.987Z,6.55
2022-11-07T06:23:53.952Z,5.18
2022-11-07T06:24:56.795Z,5.32
2022-11-07T06:26:01.954Z,5.80
2022-11-07T06:27:04.783Z,5.50
2022-11-07T06:28:09.641Z,14.18
2022-11-07T06:29:13.182Z,5.97
2022-11-07T06:30:17.875Z,4.75
2022-11-07T06:31:20.147Z,4.55
2022-11-07T06:32:21.950Z,4.17
2022-11-07T06:33:24.055Z,4.78
2022-11-07T06:34:26.285Z,5.35
2022-11-07T06:35:30.742Z,5.45
2022-11-07T06:36:36.740Z,5.20
2022-11-07T06:37:41.488Z,6.30
2022-11-07T06:38:46.379Z,7.95
2022-11-07T06:39:51.038Z,6.80
2022-11-07T06:40:53.009Z,5.07
2022-11-07T06:41:55.726Z,6.10
2022-11-07T06:43:14.495Z,8.73
2022-11-07T06:44:18.129Z,5.82
2022-11-07T06:45:22.253Z,5.57
2022-11-07T06:46:25.324Z,6.47
2022-11-07T06:47:27.819Z,6.53
2022-11-07T06:48:33.078Z,6.95
2022-11-07T06:49:36.517Z,8.07
2022-11-07T06:50:39.666Z,6.28
2022-11-07T06:51:46.904Z,7.55
2022-11-07T06:52:51.142Z,9.45
2022-11-07T06:53:54.211Z,6.25
2022-11-07T06:54:56.368Z,7.85
2022-11-07T06:56:00.316Z,7.40
2022-11-07T06:57:01.956Z,6.07
2022-11-07T06:58:04.756Z,7.88
2022-11-07T06:59:07.818Z,6.32
2022-11-07T07:00:11.679Z,6.82
2022-11-07T07:01:15.497Z,6.72
2022-11-07T07:02:30.745Z,6.50
2022-11-07T07:03:43.984Z,5.70
2022-11-07T07:04:48.681Z,6.53
2022-11-07T07:05:51.020Z,6.63
2022-11-07T07:06:53.257Z,7.38
2022-11-07T07:07:56.414Z,5.90
2022-11-07T07:08:58.224Z,5.68
2022-11-07T07:10:03.025Z,6.35
2022-11-07T07:11:07.569Z,14.00
2022-11-07T07:12:10.969Z,8.35
2022-11-07T07:13:14.167Z,8.95
2022-11-07T07:14:19.954Z,9.13
2022-11-07T07:15:21.966Z,10.82
2022-11-07T07:16:24.105Z,9.35
2022-11-07T07:17:26.085Z,8.90
2022-11-07T07:18:28.728Z,10.48
2022-11-07T07:19:32.349Z,8.45
2022-11-07T07:20:34.311Z,11.90
2022-11-07T07:21:35.725Z,8.77
2022-11-07T07:22:38.586Z,10.93
2022-11-07T07:23:42.825Z,11.70
2022-11-07T07:24:48.581Z,9.73
2022-11-07T07:25:50.271Z,9.18
2022-11-07T07:26:51.681Z,10.85
2022-11-07T07:27:53.134Z,12.07
2022-11-07T07:28:55.725Z,8.97
2022-11-07T07:29:59.473Z,11.27
2022-11-07T07:31:15.728Z,9.80
2022-11-07T07:35:23.092Z,10.13
2022-11-07T07:37:20.957Z,9.55
2022-11-07T07:43:49.208Z,8.45
2022-11-07T07:52:26.797Z,6.10
2022-11-07T07:53:29.824Z,7.97
2022-11-07T07:54:41.537Z,7.88
2022-11-07T07:57:44.650Z,8.90
2022-11-07T07:59:01.345Z,6.78
2022-11-07T08:05:03.550Z,8.18
2022-11-07T08:06:07.641Z,7.10
2022-11-07T08:09:41.147Z,8.93
2022-11-07T08:11:12.659Z,7.90
2022-11-07T08:12:51.192Z,6.47
2022-11-07T08:15:40.516Z,7.88
2022-11-07T08:17:02.597Z,5.82
2022-11-07T08:21:08.554Z,5.50
2022-11-07T08:21:09.069Z,6.25
2022-11-07T08:22:18.546Z,5.25
2022-11-07T08:23:53.715Z,5.72
2022-11-07T08:24:56.814Z,6.80
2022-11-07T08:26:32.050Z,5.43
2022-11-07T08:27:36.554Z,5.00
2022-11-07T08:28:39.614Z,4.38
2022-11-07T08:29:46.714Z,5.50
2022-11-07T08:31:07.254Z,6.30
2022-11-07T08:32:09.693Z,5.85
2022-11-07T08:33:13.265Z,3.58
2022-11-07T08:34:17.788Z,4.18
2022-11-07T08:35:20.418Z,10.73
2022-11-07T08:36:22.578Z,6.20
2022-11-07T08:37:27.041Z,5.32
2022-11-07T08:38:33.254Z,4.93
2022-11-07T08:39:36.428Z,5.10
2022-11-07T08:40:40.432Z,5.28
2022-11-07T08:41:47.333Z,5.82
2022-11-07T08:42:50.310Z,5.72
2022-11-07T08:44:11.252Z,5.68
2022-11-07T08:45:13.455Z,5.40
2022-11-07T08:46:15.823Z,6.22
2022-11-07T08:47:18.370Z,5.35
2022-11-07T08:48:20.551Z,5.85
2022-11-07T08:49:33.609Z,5.53
2022-11-07T08:50:37.210Z,4.13
2022-11-07T08:51:41.231Z,4.03
2022-11-07T08:52:44.499Z,5.43
2022-11-07T08:53:46.424Z,5.53
2022-11-07T08:54:52.318Z,5.10
2022-11-07T08:56:15.531Z,3.78
2022-11-07T08:57:17.416Z,5.25
2022-11-07T08:58:21.262Z,4.20
2022-11-07T09:03:54.696Z,3.47
2022-11-07T09:05:09.589Z,5.07
2022-11-07T09:06:26.453Z,5.63
2022-11-07T09:07:41.831Z,5.70
2022-11-07T09:08:47.785Z,4.82
2022-11-07T09:10:02.432Z,3.80
2022-11-07T09:11:06.150Z,5.05
2022-11-07T09:12:11.950Z,4.85
2022-11-07T09:13:21.345Z,5.20
2022-11-07T09:14:46.211Z,13.38
2022-11-07T09:17:48.169Z,15.73
2022-11-07T09:18:54.790Z,12.70
2022-11-07T09:20:01.798Z,16.77
2022-11-07T09:21:05.793Z,9.15
2022-11-07T09:22:18.071Z,7.53
2022-11-07T09:23:20.894Z,7.68
2022-11-07T09:24:23.850Z,8.70
2022-11-07T09:25:26.920Z,9.52
2022-11-07T09:26:34.071Z,12.90
2022-11-07T09:27:36.789Z,7.18
2022-11-07T09:28:48.437Z,7.93
2022-11-07T09:30:21.377Z,9.63
2022-11-07T09:31:25.153Z,4.00
2022-11-07T09:32:44.939Z,4.78
2022-11-07T09:33:47.769Z,4.18
2022-11-07T09:34:57.199Z,5.68
2022-11-07T09:36:08.248Z,4.90
2022-11-07T09:37:21.693Z,5.75
2022-11-07T09:38:37.607Z,7.77
2022-11-07T09:39:43.940Z,5.72
2022-11-07T09:41:56.541Z,9.00
2022-11-07T09:43:53.467Z,7.03
2022-11-07T09:45:00.564Z,5.05
2022-11-07T09:47:25.925Z,8.10
2022-11-07T09:50:00.267Z,7.07
2022-11-07T09:51:10.730Z,4.22
2022-11-07T09:52:32.341Z,6.80
2022-11-07T09:53:50.276Z,4.45
2022-11-07T09:55:08.245Z,4.15
2022-11-07T09:56:12.941Z,5.35
2022-11-07T09:59:27.660Z,4.18
2022-11-07T10:01:16.043Z,4.28
2022-11-07T10:02:54.325Z,5.30
2022-11-07T10:04:26.107Z,3.53
2022-11-07T10:06:03.161Z,3.55
2022-11-07T10:07:46.794Z,5.38
2022-11-07T10:12:02.542Z,4.78
2022-11-07T10:13:32.034Z,6.33
2022-11-07T10:16:26.115Z,5.28
2022-11-07T10:18:18.091Z,6.50
2022-11-07T10:19:53.657Z,5.78
2022-11-07T10:21:38.465Z,7.53
2022-11-07T10:23:33.043Z,4.75
2022-11-07T10:24:54.738Z,5.28
2022-11-07T10:26:13.062Z,5.38
2022-11-07T10:27:16.182Z,4.53
2022-11-07T10:29:25.350Z,4.47
2022-11-07T10:31:32.635Z,5.68
2022-11-07T10:35:44.287Z,4.63
2022-11-07T10:36:49.668Z,5.43
2022-11-07T10:37:58.343Z,4.60
2022-11-07T10:39:17.045Z,3.35
2022-11-07T10:40:23.783Z,3.35
2022-11-07T10:41:35.980Z,4.25
2022-11-07T10:42:45.963Z,4.47
2022-11-07T10:44:26.226Z,4.45
2022-11-07T10:45:39.142Z,3.47
2022-11-07T10:48:15.060Z,4.90
2022-11-07T10:49:46.992Z,4.72
2022-11-07T10:51:24.320Z,4.55
2022-11-07T10:52:33.829Z,5.95
2022-11-07T10:53:48.860Z,5.05
2022-11-07T10:55:10.300Z,4.13
2022-11-07T10:56:14.413Z,4.70
2022-11-07T10:57:29.594Z,5.28
2022-11-07T10:58:42.959Z,4.57
2022-11-07T10:59:53.480Z,5.38
2022-11-07T11:01:01.776Z,6.53
2022-11-07T11:02:24.299Z,5.13
2022-11-07T11:03:55.979Z,3.88
2022-11-07T11:05:03.100Z,4.40
2022-11-07T11:06:29.102Z,3.95
2022-11-07T11:07:39.561Z,4.93
2022-11-07T11:08:52.166Z,4.18
2022-11-07T11:09:58.790Z,6.00
2022-11-07T11:11:01.620Z,4.78
2022-11-07T11:12:14.120Z,6.95
2022-11-07T11:15:21.779Z,5.75
2022-11-07T11:16:38.748Z,4.57
2022-11-07T11:17:47.020Z,4.50
2022-11-07T11:19:05.205Z,3.30
2022-11-07T11:20:43.328Z,5.78
2022-11-07T11:21:52.001Z,5.72
2022-11-07T11:22:54.980Z,3.97
2022-11-07T11:24:02.422Z,5.43
2022-11-07T11:25:23.035Z,5.23
2022-11-07T11:26:48.870Z,6.40
2022-11-07T11:31:52.389Z,3.83
2022-11-07T11:33:30.639Z,8.18
2022-11-07T11:37:08.192Z,5.82
2022-11-07T11:38:50.217Z,6.38
2022-11-07T11:40:00.453Z,4.07
2022-11-07T11:41:41.737Z,4.43
2022-11-07T11:42:59.458Z,4.97
2022-11-07T11:44:41.577Z,6.00
2022-11-07T11:46:12.737Z,5.18
2022-11-07T11:47:39.955Z,4.03
2022-11-07T11:49:06.038Z,5.72
2022-11-07T11:50:18.713Z,4.82
2022-11-07T11:52:00.278Z,5.78
2022-11-07T11:53:02.532Z,7.32
2022-11-07T11:54:11.980Z,4.88
2022-11-07T11:55:20.356Z,4.97
2022-11-07T11:57:04.098Z,6.57
2022-11-07T11:58:26.743Z,5.72
2022-11-07T12:00:03.865Z,5.80
2022-11-07T12:01:40.875Z,3.47
2022-11-07T12:03:09.956Z,4.35
2022-11-07T12:04:33.022Z,5.40
2022-11-07T12:06:45.480Z,5.07
2022-11-07T12:08:34.314Z,5.00
2022-11-07T12:09:54.314Z,5.45
2022-11-07T12:12:09.052Z,4.43
2022-11-07T12:14:02.175Z,6.93
2022-11-07T12:15:55.534Z,7.30
2022-11-07T12:18:08.468Z,4.88
2022-11-07T12:19:47.514Z,5.85
2022-11-07T12:21:26.930Z,5.57
2022-11-07T12:23:39.834Z,5.13
2022-11-07T12:25:24.270Z,4.35
2022-11-07T12:27:26.931Z,5.03
2022-11-07T12:29:06.836Z,5.32
2022-11-07T12:30:59.729Z,5.72
2022-11-07T12:32:15.052Z,5.30
2022-11-07T12:33:48.094Z,6.53
2022-11-07T12:35:37.998Z,4.68
2022-11-07T12:37:16.188Z,3.97
2022-11-07T12:41:20.516Z,4.63
2022-11-07T12:45:52.245Z,3.78
2022-11-07T12:47:10.627Z,4.47
2022-11-07T12:48:49.655Z,5.65
2022-11-07T12:50:06.363Z,3.95
2022-11-07T12:51:30.330Z,3.60
2022-11-07T12:52:59.582Z,4.25
2022-11-07T12:54:52.355Z,5.93
2022-11-07T12:56:27.610Z,5.32
2022-11-07T12:57:58.435Z,8.82
2022-11-07T12:59:17.539Z,4.90
2022-11-07T13:00:31.367Z,4.15
2022-11-07T13:01:44.654Z,4.93
2022-11-07T13:03:20.977Z,5.10
2022-11-07T13:04:47.566Z,3.92
2022-11-07T13:06:39.441Z,5.07
2022-11-07T13:08:00.019Z,4.68
2022-11-07T13:09:21.645Z,3.25
2022-11-07T13:10:47.785Z,2.83
2022-11-07T13:12:17.554Z,6.18
2022-11-07T13:13:36.214Z,4.97
2022-11-07T13:15:10.526Z,5.13
2022-11-07T13:16:36.951Z,4.80
2022-11-07T13:17:42.900Z,4.32
2022-11-07T13:18:44.875Z,4.07
2022-11-07T13:20:28.641Z,5.18
2022-11-07T13:22:51.367Z,5.15
2022-11-07T13:24:27.882Z,4.50
2022-11-07T13:26:14.782Z,4.47
2022-11-07T13:27:45.692Z,4.03
2022-11-07T13:30:06.943Z,5.45
2022-11-07T13:31:37.967Z,5.32
2022-11-07T13:33:09.715Z,6.05
2022-11-07T13:38:36.863Z,8.18
2022-11-07T13:40:26.931Z,6.07
2022-11-07T13:41:58.170Z,7.53
2022-11-07T13:43:39.306Z,5.50
2022-11-07T13:44:44.744Z,4.63
2022-11-07T13:46:00.248Z,5.22
2022-11-07T13:47:13.946Z,6.47
2022-11-07T13:49:12.120Z,4.55
2022-11-07T13:50:42.328Z,5.65
2022-11-07T13:52:01.327Z,5.70
2022-11-07T13:53:10.475Z,4.15
2022-11-07T13:54:36.306Z,5.15
2022-11-07T13:56:35.072Z,6.00
2022-11-07T14:01:54.241Z,5.22
2022-11-07T14:02:59.078Z,6.15
2022-11-07T14:08:57.311Z,5.45
2022-11-07T14:12:51.677Z,3.83
2022-11-07T14:14:26.397Z,4.35
2022-11-07T14:23:27.795Z,3.83
2022-11-07T14:24:35.163Z,5.03
2022-11-07T14:25:40.993Z,3.97
2022-11-07T14:26:43.977Z,3.83
2022-11-07T14:27:50.648Z,5.13
2022-11-07T14:28:57.116Z,3.72
2022-11-07T14:30:00.767Z,4.32
2022-11-07T14:31:07.650Z,5.30
2022-11-07T14:32:30.757Z,6.50
2022-11-07T14:33:35.575Z,4.87
2022-11-07T14:34:47.187Z,4.85
2022-11-07T14:35:52.041Z,5.45
2022-11-07T14:36:58.066Z,5.45
2022-11-07T14:38:11.678Z,4.70
2022-11-07T14:39:16.819Z,3.08
2022-11-07T14:40:20.100Z,3.78
2022-11-07T14:41:27.697Z,6.15
2022-11-07T14:42:32.728Z,5.78
2022-11-07T14:43:40.728Z,4.07
2022-11-07T14:44:56.050Z,5.00
2022-11-07T14:46:13.879Z,7.60
2022-11-07T14:47:23.243Z,7.05
2022-11-07T14:48:28.784Z,5.40
2022-11-07T14:50:20.749Z,4.82
2022-11-07T14:51:36.270Z,6.30
2022-11-07T14:53:12.353Z,6.03
2022-11-07T14:55:00.968Z,4.70
2022-11-07T14:56:08.936Z,4.15
2022-11-07T14:57:13.301Z,4.13
2022-11-07T14:58:20.066Z,4.07
2022-11-07T15:02:01.765Z,4.93
2022-11-07T15:03:23.632Z,5.82
2022-11-07T15:04:41.431Z,6.53
2022-11-07T15:05:48.432Z,6.50
2022-11-07T15:06:54.502Z,7.35
2022-11-07T15:08:00.139Z,5.32
2022-11-07T15:09:11.387Z,5.05
2022-11-07T15:10:40.183Z,5.67
2022-11-07T15:12:16.357Z,5.68
2022-11-07T15:13:47.858Z,4.07
2022-11-07T15:15:23.512Z,6.03
2022-11-07T15:16:39.316Z,4.05
2022-11-07T15:17:49.637Z,5.32
2022-11-07T15:19:02.675Z,6.72
2022-11-07T15:26:24.936Z,6.47
2022-11-07T15:27:48.584Z,5.15
2022-11-07T15:28:55.769Z,7.60
2022-11-07T15:30:02.493Z,4.35
2022-11-07T15:45:05.419Z,6.65
2022-11-07T15:46:37.356Z,6.50
2022-11-07T16:10:26.824Z,8.77
2022-11-07T16:11:30.134Z,4.47
2022-11-07T16:12:32.359Z,5.57
2022-11-07T16:13:37.823Z,5.57
2022-11-07T16:14:44.406Z,4.35
2022-11-07T16:15:50.647Z,4.95
2022-11-07T16:16:55.643Z,7.20
2022-11-07T16:17:57.447Z,4.30
2022-11-07T16:19:00.636Z,5.60
2022-11-07T16:20:03.561Z,4.55
2022-11-07T16:21:06.838Z,6.85
2022-11-07T16:22:17.027Z,7.88
2022-11-07T16:23:19.441Z,10.10
2022-11-07T16:24:24.549Z,5.25
2022-11-07T16:25:27.519Z,8.10
2022-11-07T16:26:30.336Z,7.43
2022-11-07T16:27:32.599Z,4.88
2022-11-07T16:28:35.745Z,5.43
2022-11-07T16:29:44.411Z,7.88
2022-11-07T16:30:46.950Z,6.47
2022-11-07T16:31:49.324Z,4.47
2022-11-07T16:32:52.220Z,6.10
2022-11-07T16:33:54.995Z,5.22
2022-11-07T16:34:57.504Z,7.45
2022-11-07T16:36:01.923Z,5.82
2022-11-07T16:37:04.511Z,5.95
2022-11-07T16:38:19.446Z,8.43
2022-11-07T16:39:23.317Z,7.18
2022-11-07T16:40:24.822Z,6.28
2022-11-07T16:41:30.284Z,6.00
2022-11-07T16:42:31.719Z,6.20
2022-11-07T16:43:35.100Z,6.13
2022-11-07T16:44:40.090Z,6.57
2022-11-07T16:45:55.890Z,7.65
2022-11-07T16:46:58.534Z,5.97
2022-11-07T16:48:05.200Z,7.10
2022-11-07T16:49:34.874Z,4.55
2022-11-07T16:50:36.284Z,6.85
2022-11-07T16:51:38.330Z,7.75
2022-11-07T16:52:41.111Z,5.80
2022-11-07T16:53:43.958Z,5.43
2022-11-07T16:54:46.797Z,6.13
2022-11-07T16:55:54.017Z,6.85
2022-11-07T16:57:00.631Z,8.95
2022-11-07T16:58:02.261Z,8.80
2022-11-07T16:59:06.913Z,9.57
2022-11-07T17:00:23.542Z,7.30
2022-11-07T17:01:26.605Z,8.73
2022-11-07T17:02:29.142Z,8.18
2022-11-07T17:03:35.319Z,6.18
2022-11-07T17:04:37.376Z,6.97
2022-11-07T17:05:40.091Z,6.53
2022-11-07T17:06:49.955Z,7.43
2022-11-07T17:07:55.119Z,6.13
2022-11-07T17:09:05.006Z,6.78
2022-11-07T17:10:16.526Z,8.63
2022-11-07T17:11:19.119Z,7.60
2022-11-07T17:12:22.547Z,10.20
2022-11-07T17:13:24.262Z,7.53
2022-11-07T17:14:27.029Z,8.15
2022-11-07T17:15:31.729Z,9.93
2022-11-07T17:16:37.085Z,5.55
2022-11-07T17:17:40.218Z,9.13
2022-11-07T17:18:43.486Z,5.32
2022-11-07T17:19:50.515Z,4.88
2022-11-07T17:20:54.013Z,5.22
2022-11-07T17:21:57.740Z,5.03
2022-11-07T17:22:59.853Z,5.78
2022-11-07T17:24:01.751Z,4.88
2022-11-07T17:25:03.651Z,7.50
2022-11-07T17:26:05.722Z,5.82
2022-11-07T17:27:24.229Z,6.00
2022-11-07T17:28:27.695Z,5.55
2022-11-07T17:29:32.203Z,6.50
2022-11-07T17:30:33.706Z,15.45
2022-11-07T17:31:35.461Z,7.80
2022-11-07T17:32:39.549Z,8.80
2022-11-07T17:33:41.735Z,12.63
2022-11-07T17:34:43.367Z,6.82
2022-11-07T17:35:45.381Z,11.30
2022-11-07T17:36:50.898Z,7.70
2022-11-07T17:37:52.383Z,8.77
2022-11-07T17:38:54.618Z,10.77
2022-11-07T17:39:59.500Z,10.82
2022-11-07T17:41:17.447Z,8.15
2022-11-07T17:42:22.816Z,5.82
2022-11-07T17:43:24.787Z,6.57
2022-11-07T17:44:26.271Z,5.45
2022-11-07T17:45:31.102Z,6.00
2022-11-07T17:46:37.843Z,4.13
2022-11-07T17:47:41.481Z,6.07